Portada
METAR-TAF:

METAR-TAF

Aeroports :

Warrensburg, Missouri, Estats Units d'Amèrica

latitud: 38-47-03N, longitud: 093-48-10W, altitud: 243 m

Observació

L'informe es va fer fa 1 hora i 4 minuts, a les 22:35 UTC
Vent 10 kt del Sud amb ràfegues de 14 kt
Temperatura 29°C
Humitat 48%
Pressió 1008 hPa
Visibilitat: 16.1 km

METAR: KRCM 242235Z AUTO 19010G14KT 10SM 29/17 A2978 RMK AO2 LTG DSNT E

Hora: 18:39 (23:39 UTC)


TAF: manca

Observacions i pronòstics meteorològics de més de 4000 aeroports (METAR i TAF).

Les estacions disponibles són els punts grocs i vermells al mapa.

Posi el ratolí al punt desitjat per veure el nom de l'estació.

Feu clic per veure les observacions i els pronòstics meteorològics.

Per canviar el mapa: feu clic els botons verds amb una creu de color negre per apropar; al botó verd amb un guió per allunyar la imatge; o en les fletxes verdes per a mapes adjacents.


METAR-TAF: